sensor_id;sensor_type;location;lat;lon;timestamp;P1;durP1;ratioP1;P2;durP2;ratioP2
14686;SDS011;7431;49.440;11.084;2023-04-29T00:00:06;3.00;;;2.20;;
14686;SDS011;7431;49.440;11.084;2023-04-29T00:02:33;2.40;;;2.20;;
14686;SDS011;7431;49.440;11.084;2023-04-29T00:05:00;2.13;;;1.90;;
14686;SDS011;7431;49.440;11.084;2023-04-29T00:07:28;2.27;;;2.03;;
14686;SDS011;7431;49.440;11.084;2023-04-29T00:09:55;2.37;;;2.17;;
14686;SDS011;7431;49.440;11.084;2023-04-29T00:12:21;2.37;;;2.10;;
14686;SDS011;7431;49.440;11.084;2023-04-29T00:14:47;3.27;;;2.00;;
14686;SDS011;7431;49.440;11.084;2023-04-29T00:17:14;2.67;;;2.47;;
14686;SDS011;7431;49.440;11.084;2023-04-29T00:19:41;2.63;;;2.43;;
14686;SDS011;7431;49.440;11.084;2023-04-29T00:22:07;2.90;;;2.30;;
14686;SDS011;7431;49.440;11.084;2023-04-29T00:24:33;2.97;;;2.20;;
14686;SDS011;7431;49.440;11.084;2023-04-29T00:27:00;4.10;;;2.47;;
14686;SDS011;7431;49.440;11.084;2023-04-29T00:29:30;2.33;;;2.13;;
14686;SDS011;7431;49.440;11.084;2023-04-29T00:31:56;2.50;;;2.10;;
14686;SDS011;7431;49.440;11.084;2023-04-29T00:34:23;2.63;;;1.90;;
14686;SDS011;7431;49.440;11.084;2023-04-29T00:36:49;2.10;;;1.90;;
14686;SDS011;7431;49.440;11.084;2023-04-29T00:39:15;2.67;;;2.07;;
14686;SDS011;7431;49.440;11.084;2023-04-29T00:41:41;2.70;;;2.37;;
14686;SDS011;7431;49.440;11.084;2023-04-29T00:44:10;2.40;;;2.20;;
14686;SDS011;7431;49.440;11.084;2023-04-29T00:46:36;2.33;;;2.13;;
14686;SDS011;7431;49.440;11.084;2023-04-29T00:49:02;2.37;;;2.17;;
14686;SDS011;7431;49.440;11.084;2023-04-29T00:51:28;3.20;;;2.20;;
14686;SDS011;7431;49.440;11.084;2023-04-29T00:53:57;2.30;;;2.10;;
14686;SDS011;7431;49.440;11.084;2023-04-29T00:56:23;2.17;;;1.97;;
14686;SDS011;7431;49.440;11.084;2023-04-29T00:58:49;2.40;;;2.20;;
14686;SDS011;7431;49.440;11.084;2023-04-29T01:01:16;2.57;;;2.10;;
14686;SDS011;7431;49.440;11.084;2023-04-29T01:03:43;2.17;;;1.97;;
14686;SDS011;7431;49.440;11.084;2023-04-29T01:06:22;2.63;;;2.27;;
14686;SDS011;7431;49.440;11.084;2023-04-29T01:09:08;2.67;;;2.47;;
14686;SDS011;7431;49.440;11.084;2023-04-29T01:11:44;2.10;;;1.90;;
14686;SDS011;7431;49.440;11.084;2023-04-29T01:14:12;3.40;;;2.13;;
14686;SDS011;7431;49.440;11.084;2023-04-29T01:16:50;2.60;;;2.40;;
14686;SDS011;7431;49.440;11.084;2023-04-29T01:22:01;2.20;;;2.10;;
14686;SDS011;7431;49.440;11.084;2023-04-29T01:24:27;2.50;;;2.30;;
14686;SDS011;7431;49.440;11.084;2023-04-29T01:26:58;2.80;;;2.60;;
14686;SDS011;7431;49.440;11.084;2023-04-29T01:29:39;3.37;;;2.53;;
14686;SDS011;7431;49.440;11.084;2023-04-29T01:32:11;2.70;;;2.50;;
14686;SDS011;7431;49.440;11.084;2023-04-29T01:34:43;3.93;;;2.53;;
14686;SDS011;7431;49.440;11.084;2023-04-29T01:37:30;3.10;;;2.80;;
14686;SDS011;7431;49.440;11.084;2023-04-29T01:42:29;3.07;;;2.77;;
14686;SDS011;7431;49.440;11.084;2023-04-29T01:44:59;4.30;;;3.50;;
14686;SDS011;7431;49.440;11.084;2023-04-29T01:47:25;4.50;;;3.67;;
14686;SDS011;7431;49.440;11.084;2023-04-29T01:49:52;4.43;;;3.53;;
14686;SDS011;7431;49.440;11.084;2023-04-29T01:52:18;4.40;;;4.00;;
14686;SDS011;7431;49.440;11.084;2023-04-29T01:54:45;5.00;;;4.33;;
14686;SDS011;7431;49.440;11.084;2023-04-29T01:57:11;4.47;;;4.00;;
14686;SDS011;7431;49.440;11.084;2023-04-29T01:59:37;5.83;;;3.77;;
14686;SDS011;7431;49.440;11.084;2023-04-29T02:02:03;5.73;;;4.47;;
14686;SDS011;7431;49.440;11.084;2023-04-29T02:04:29;4.97;;;4.50;;
14686;SDS011;7431;49.440;11.084;2023-04-29T02:06:57;5.23;;;4.07;;
14686;SDS011;7431;49.440;11.084;2023-04-29T02:09:23;4.20;;;3.80;;
14686;SDS011;7431;49.440;11.084;2023-04-29T02:11:49;4.53;;;4.10;;
14686;SDS011;7431;49.440;11.084;2023-04-29T02:14:15;7.63;;;4.13;;
14686;SDS011;7431;49.440;11.084;2023-04-29T02:16:44;6.27;;;4.50;;
14686;SDS011;7431;49.440;11.084;2023-04-29T02:19:10;4.87;;;4.47;;
14686;SDS011;7431;49.440;11.084;2023-04-29T02:21:36;6.03;;;4.40;;
14686;SDS011;7431;49.440;11.084;2023-04-29T02:24:04;4.57;;;4.10;;
14686;SDS011;7431;49.440;11.084;2023-04-29T02:26:30;4.80;;;4.40;;
14686;SDS011;7431;49.440;11.084;2023-04-29T02:28:58;4.80;;;4.40;;
14686;SDS011;7431;49.440;11.084;2023-04-29T02:31:24;5.50;;;4.37;;
14686;SDS011;7431;49.440;11.084;2023-04-29T02:33:50;4.77;;;4.37;;
14686;SDS011;7431;49.440;11.084;2023-04-29T02:36:16;4.90;;;4.43;;
14686;SDS011;7431;49.440;11.084;2023-04-29T02:38:42;4.83;;;4.33;;
14686;SDS011;7431;49.440;11.084;2023-04-29T02:41:08;5.97;;;4.67;;
14686;SDS011;7431;49.440;11.084;2023-04-29T02:43:34;5.47;;;4.90;;
14686;SDS011;7431;49.440;11.084;2023-04-29T02:46:00;5.13;;;4.60;;
14686;SDS011;7431;49.440;11.084;2023-04-29T02:48:26;5.53;;;5.07;;
14686;SDS011;7431;49.440;11.084;2023-04-29T02:50:52;5.30;;;4.53;;
14686;SDS011;7431;49.440;11.084;2023-04-29T02:53:18;5.30;;;4.90;;
14686;SDS011;7431;49.440;11.084;2023-04-29T02:55:45;5.73;;;5.07;;
14686;SDS011;7431;49.440;11.084;2023-04-29T02:58:12;6.13;;;5.53;;
14686;SDS011;7431;49.440;11.084;2023-04-29T03:00:39;5.33;;;4.83;;
14686;SDS011;7431;49.440;11.084;2023-04-29T03:03:06;5.47;;;4.97;;
14686;SDS011;7431;49.440;11.084;2023-04-29T03:05:32;6.53;;;4.97;;
14686;SDS011;7431;49.440;11.084;2023-04-29T03:07:58;5.60;;;5.10;;
14686;SDS011;7431;49.440;11.084;2023-04-29T03:10:34;5.27;;;4.77;;
14686;SDS011;7431;49.440;11.084;2023-04-29T03:13:00;4.80;;;4.40;;
14686;SDS011;7431;49.440;11.084;2023-04-29T03:15:26;5.43;;;4.93;;
14686;SDS011;7431;49.440;11.084;2023-04-29T03:17:52;5.33;;;4.93;;
14686;SDS011;7431;49.440;11.084;2023-04-29T03:20:18;5.60;;;5.07;;
14686;SDS011;7431;49.440;11.084;2023-04-29T03:22:44;5.93;;;5.27;;
14686;SDS011;7431;49.440;11.084;2023-04-29T03:25:10;4.93;;;4.53;;
14686;SDS011;7431;49.440;11.084;2023-04-29T03:27:37;5.40;;;4.90;;
14686;SDS011;7431;49.440;11.084;2023-04-29T03:30:03;4.93;;;4.53;;
14686;SDS011;7431;49.440;11.084;2023-04-29T03:32:30;5.57;;;5.17;;
14686;SDS011;7431;49.440;11.084;2023-04-29T03:34:56;6.17;;;5.67;;
14686;SDS011;7431;49.440;11.084;2023-04-29T03:37:22;5.97;;;5.37;;
14686;SDS011;7431;49.440;11.084;2023-04-29T03:39:48;5.87;;;5.17;;
14686;SDS011;7431;49.440;11.084;2023-04-29T03:42:14;5.50;;;5.00;;
14686;SDS011;7431;49.440;11.084;2023-04-29T03:44:40;5.57;;;5.17;;
14686;SDS011;7431;49.440;11.084;2023-04-29T03:47:06;6.17;;;5.63;;
14686;SDS011;7431;49.440;11.084;2023-04-29T03:49:32;5.80;;;5.30;;
14686;SDS011;7431;49.440;11.084;2023-04-29T03:51:58;6.10;;;5.50;;
14686;SDS011;7431;49.440;11.084;2023-04-29T03:54:24;6.40;;;5.80;;
14686;SDS011;7431;49.440;11.084;2023-04-29T03:56:50;6.77;;;6.07;;
14686;SDS011;7431;49.440;11.084;2023-04-29T03:59:16;6.00;;;5.50;;
14686;SDS011;7431;49.440;11.084;2023-04-29T04:01:42;7.63;;;6.13;;
14686;SDS011;7431;49.440;11.084;2023-04-29T04:04:08;6.13;;;5.60;;
14686;SDS011;7431;49.440;11.084;2023-04-29T04:06:34;6.67;;;6.07;;
14686;SDS011;7431;49.440;11.084;2023-04-29T04:09:01;6.20;;;5.40;;
14686;SDS011;7431;49.440;11.084;2023-04-29T04:11:27;7.53;;;5.97;;
14686;SDS011;7431;49.440;11.084;2023-04-29T04:13:53;7.17;;;6.47;;
14686;SDS011;7431;49.440;11.084;2023-04-29T04:16:19;6.80;;;6.20;;
14686;SDS011;7431;49.440;11.084;2023-04-29T04:18:45;7.17;;;6.50;;
14686;SDS011;7431;49.440;11.084;2023-04-29T04:21:11;7.60;;;6.90;;
14686;SDS011;7431;49.440;11.084;2023-04-29T04:23:37;6.23;;;5.70;;
14686;SDS011;7431;49.440;11.084;2023-04-29T04:26:05;7.13;;;6.47;;
14686;SDS011;7431;49.440;11.084;2023-04-29T04:28:31;7.37;;;6.67;;
14686;SDS011;7431;49.440;11.084;2023-04-29T04:30:57;7.57;;;6.87;;
14686;SDS011;7431;49.440;11.084;2023-04-29T04:33:23;7.83;;;7.13;;
14686;SDS011;7431;49.440;11.084;2023-04-29T04:35:50;7.70;;;7.00;;
14686;SDS011;7431;49.440;11.084;2023-04-29T04:38:16;8.77;;;8.00;;
14686;SDS011;7431;49.440;11.084;2023-04-29T04:40:42;11.87;;;10.60;;
14686;SDS011;7431;49.440;11.084;2023-04-29T04:43:09;11.23;;;9.67;;
14686;SDS011;7431;49.440;11.084;2023-04-29T04:45:35;11.03;;;9.57;;
14686;SDS011;7431;49.440;11.084;2023-04-29T04:48:01;11.23;;;9.87;;
14686;SDS011;7431;49.440;11.084;2023-04-29T04:50:27;13.20;;;10.73;;
14686;SDS011;7431;49.440;11.084;2023-04-29T04:52:54;12.73;;;10.70;;
14686;SDS011;7431;49.440;11.084;2023-04-29T04:55:20;12.47;;;10.83;;
14686;SDS011;7431;49.440;11.084;2023-04-29T04:57:46;11.97;;;10.17;;
14686;SDS011;7431;49.440;11.084;2023-04-29T05:00:12;13.23;;;10.07;;
14686;SDS011;7431;49.440;11.084;2023-04-29T05:02:38;10.17;;;9.17;;
14686;SDS011;7431;49.440;11.084;2023-04-29T05:05:05;13.60;;;9.40;;
14686;SDS011;7431;49.440;11.084;2023-04-29T05:07:31;11.47;;;9.07;;
14686;SDS011;7431;49.440;11.084;2023-04-29T05:09:59;9.73;;;8.73;;
14686;SDS011;7431;49.440;11.084;2023-04-29T05:12:26;7.77;;;7.03;;
14686;SDS011;7431;49.440;11.084;2023-04-29T05:14:54;7.37;;;6.67;;
14686;SDS011;7431;49.440;11.084;2023-04-29T05:17:20;7.80;;;7.00;;
14686;SDS011;7431;49.440;11.084;2023-04-29T05:19:46;7.37;;;6.60;;
14686;SDS011;7431;49.440;11.084;2023-04-29T05:22:12;7.10;;;6.30;;
14686;SDS011;7431;49.440;11.084;2023-04-29T05:24:38;6.50;;;5.90;;
14686;SDS011;7431;49.440;11.084;2023-04-29T05:27:04;7.15;;;6.45;;
14686;SDS011;7431;49.440;11.084;2023-04-29T05:29:30;7.95;;;7.10;;
14686;SDS011;7431;49.440;11.084;2023-04-29T05:31:56;6.63;;;6.03;;
14686;SDS011;7431;49.440;11.084;2023-04-29T05:34:23;6.80;;;6.20;;
14686;SDS011;7431;49.440;11.084;2023-04-29T05:36:49;6.72;;;6.22;;
14686;SDS011;7431;49.440;11.084;2023-04-29T05:39:15;7.07;;;6.37;;
14686;SDS011;7431;49.440;11.084;2023-04-29T05:41:41;6.78;;;6.20;;
14686;SDS011;7431;49.440;11.084;2023-04-29T05:44:07;6.80;;;6.20;;
14686;SDS011;7431;49.440;11.084;2023-04-29T05:46:34;7.17;;;6.57;;
14686;SDS011;7431;49.440;11.084;2023-04-29T05:49:00;6.95;;;6.38;;
14686;SDS011;7431;49.440;11.084;2023-04-29T05:51:26;6.93;;;6.32;;
14686;SDS011;7431;49.440;11.084;2023-04-29T05:53:52;6.57;;;5.97;;
14686;SDS011;7431;49.440;11.084;2023-04-29T05:56:18;6.72;;;6.13;;
14686;SDS011;7431;49.440;11.084;2023-04-29T05:58:46;6.93;;;6.27;;
14686;SDS011;7431;49.440;11.084;2023-04-29T06:01:12;5.82;;;5.35;;
14686;SDS011;7431;49.440;11.084;2023-04-29T06:03:38;6.40;;;5.90;;
14686;SDS011;7431;49.440;11.084;2023-04-29T06:06:05;5.90;;;5.43;;
14686;SDS011;7431;49.440;11.084;2023-04-29T06:08:31;6.82;;;6.22;;
14686;SDS011;7431;49.440;11.084;2023-04-29T06:10:57;6.68;;;6.13;;
14686;SDS011;7431;49.440;11.084;2023-04-29T06:13:23;6.55;;;5.95;;
14686;SDS011;7431;49.440;11.084;2023-04-29T06:15:50;6.00;;;5.50;;
14686;SDS011;7431;49.440;11.084;2023-04-29T06:18:16;6.30;;;5.70;;
14686;SDS011;7431;49.440;11.084;2023-04-29T06:20:42;7.18;;;6.47;;
14686;SDS011;7431;49.440;11.084;2023-04-29T06:23:08;6.80;;;6.18;;
14686;SDS011;7431;49.440;11.084;2023-04-29T06:25:34;7.43;;;6.82;;
14686;SDS011;7431;49.440;11.084;2023-04-29T06:28:00;7.10;;;6.50;;
14686;SDS011;7431;49.440;11.084;2023-04-29T06:30:27;8.52;;;7.57;;
14686;SDS011;7431;49.440;11.084;2023-04-29T06:32:53;7.00;;;6.32;;
14686;SDS011;7431;49.440;11.084;2023-04-29T06:35:19;7.57;;;6.50;;
14686;SDS011;7431;49.440;11.084;2023-04-29T06:37:45;8.20;;;7.45;;
14686;SDS011;7431;49.440;11.084;2023-04-29T06:40:11;9.18;;;7.50;;
14686;SDS011;7431;49.440;11.084;2023-04-29T06:42:37;9.68;;;7.65;;
14686;SDS011;7431;49.440;11.084;2023-04-29T06:45:04;10.90;;;9.57;;
14686;SDS011;7431;49.440;11.084;2023-04-29T06:47:30;9.25;;;8.32;;
14686;SDS011;7431;49.440;11.084;2023-04-29T06:49:56;9.35;;;8.45;;
14686;SDS011;7431;49.440;11.084;2023-04-29T06:52:22;9.55;;;8.73;;
14686;SDS011;7431;49.440;11.084;2023-04-29T06:54:48;9.77;;;8.87;;
14686;SDS011;7431;49.440;11.084;2023-04-29T06:57:14;9.75;;;8.32;;
14686;SDS011;7431;49.440;11.084;2023-04-29T06:59:41;10.50;;;9.50;;
14686;SDS011;7431;49.440;11.084;2023-04-29T07:02:07;10.10;;;9.10;;
14686;SDS011;7431;49.440;11.084;2023-04-29T07:04:33;10.38;;;9.30;;
14686;SDS011;7431;49.440;11.084;2023-04-29T07:07:01;9.95;;;8.98;;
14686;SDS011;7431;49.440;11.084;2023-04-29T07:09:27;12.75;;;10.73;;
14686;SDS011;7431;49.440;11.084;2023-04-29T07:11:53;8.13;;;7.32;;
14686;SDS011;7431;49.440;11.084;2023-04-29T07:14:19;10.07;;;8.52;;
14686;SDS011;7431;49.440;11.084;2023-04-29T07:16:47;9.50;;;8.60;;
14686;SDS011;7431;49.440;11.084;2023-04-29T07:19:12;7.88;;;6.93;;
14686;SDS011;7431;49.440;11.084;2023-04-29T07:21:39;9.00;;;7.53;;
14686;SDS011;7431;49.440;11.084;2023-04-29T07:24:05;7.50;;;6.80;;
14686;SDS011;7431;49.440;11.084;2023-04-29T07:26:31;8.75;;;7.45;;
14686;SDS011;7431;49.440;11.084;2023-04-29T07:28:57;8.35;;;7.55;;
14686;SDS011;7431;49.440;11.084;2023-04-29T07:31:23;9.35;;;8.35;;
14686;SDS011;7431;49.440;11.084;2023-04-29T07:33:49;7.40;;;6.70;;
14686;SDS011;7431;49.440;11.084;2023-04-29T07:36:15;8.18;;;6.88;;
14686;SDS011;7431;49.440;11.084;2023-04-29T07:38:41;7.97;;;7.25;;
14686;SDS011;7431;49.440;11.084;2023-04-29T07:41:07;7.50;;;6.80;;
14686;SDS011;7431;49.440;11.084;2023-04-29T07:43:33;7.13;;;6.43;;
14686;SDS011;7431;49.440;11.084;2023-04-29T07:45:59;7.93;;;7.22;;
14686;SDS011;7431;49.440;11.084;2023-04-29T07:48:25;6.90;;;6.22;;
14686;SDS011;7431;49.440;11.084;2023-04-29T07:50:51;7.05;;;6.40;;
14686;SDS011;7431;49.440;11.084;2023-04-29T07:53:17;7.53;;;6.82;;
14686;SDS011;7431;49.440;11.084;2023-04-29T07:55:43;8.60;;;7.07;;
14686;SDS011;7431;49.440;11.084;2023-04-29T07:58:09;10.93;;;9.23;;
14686;SDS011;7431;49.440;11.084;2023-04-29T08:00:35;6.93;;;6.22;;
14686;SDS011;7431;49.440;11.084;2023-04-29T08:03:01;7.93;;;6.70;;
14686;SDS011;7431;49.440;11.084;2023-04-29T08:05:27;8.27;;;7.20;;
14686;SDS011;7431;49.440;11.084;2023-04-29T08:07:54;8.27;;;7.57;;
14686;SDS011;7431;49.440;11.084;2023-04-29T08:10:20;7.95;;;7.25;;
14686;SDS011;7431;49.440;11.084;2023-04-29T08:12:47;8.27;;;7.47;;
14686;SDS011;7431;49.440;11.084;2023-04-29T08:15:13;7.47;;;6.75;;
14686;SDS011;7431;49.440;11.084;2023-04-29T08:17:39;8.15;;;7.35;;
14686;SDS011;7431;49.440;11.084;2023-04-29T08:20:06;7.68;;;6.97;;
14686;SDS011;7431;49.440;11.084;2023-04-29T08:22:32;8.07;;;7.30;;
14686;SDS011;7431;49.440;11.084;2023-04-29T08:24:58;7.97;;;7.18;;
14686;SDS011;7431;49.440;11.084;2023-04-29T08:27:25;8.68;;;7.88;;
14686;SDS011;7431;49.440;11.084;2023-04-29T08:29:51;7.15;;;6.55;;
14686;SDS011;7431;49.440;11.084;2023-04-29T08:32:17;7.97;;;7.18;;
14686;SDS011;7431;49.440;11.084;2023-04-29T08:34:43;8.30;;;7.57;;
14686;SDS011;7431;49.440;11.084;2023-04-29T08:37:09;8.60;;;7.80;;
14686;SDS011;7431;49.440;11.084;2023-04-29T08:39:35;7.90;;;7.20;;
14686;SDS011;7431;49.440;11.084;2023-04-29T08:42:08;9.48;;;8.48;;
14686;SDS011;7431;49.440;11.084;2023-04-29T08:44:34;7.78;;;6.85;;
14686;SDS011;7431;49.440;11.084;2023-04-29T08:47:01;7.68;;;7.07;;
14686;SDS011;7431;49.440;11.084;2023-04-29T08:49:27;9.45;;;8.40;;
14686;SDS011;7431;49.440;11.084;2023-04-29T08:51:53;7.90;;;7.20;;
14686;SDS011;7431;49.440;11.084;2023-04-29T08:54:19;7.63;;;6.93;;
14686;SDS011;7431;49.440;11.084;2023-04-29T08:56:46;9.70;;;8.80;;
14686;SDS011;7431;49.440;11.084;2023-04-29T08:59:15;8.05;;;7.32;;
14686;SDS011;7431;49.440;11.084;2023-04-29T09:01:42;7.90;;;6.78;;
14686;SDS011;7431;49.440;11.084;2023-04-29T09:04:11;6.65;;;6.05;;
14686;SDS011;7431;49.440;11.084;2023-04-29T09:06:40;6.85;;;6.25;;
14686;SDS011;7431;49.440;11.084;2023-04-29T09:09:06;6.03;;;5.43;;
14686;SDS011;7431;49.440;11.084;2023-04-29T09:11:32;5.88;;;5.43;;
14686;SDS011;7431;49.440;11.084;2023-04-29T09:13:59;5.90;;;5.40;;
14686;SDS011;7431;49.440;11.084;2023-04-29T09:16:26;5.55;;;5.15;;
14686;SDS011;7431;49.440;11.084;2023-04-29T09:18:52;5.90;;;5.40;;
14686;SDS011;7431;49.440;11.084;2023-04-29T09:21:23;5.50;;;5.00;;
14686;SDS011;7431;49.440;11.084;2023-04-29T09:23:59;5.47;;;5.07;;
14686;SDS011;7431;49.440;11.084;2023-04-29T09:26:26;5.53;;;5.03;;
14686;SDS011;7431;49.440;11.084;2023-04-29T09:29:05;5.47;;;5.07;;
14686;SDS011;7431;49.440;11.084;2023-04-29T09:31:31;5.35;;;4.95;;
14686;SDS011;7431;49.440;11.084;2023-04-29T09:33:57;5.95;;;5.45;;
14686;SDS011;7431;49.440;11.084;2023-04-29T09:39:06;6.10;;;5.60;;
14686;SDS011;7431;49.440;11.084;2023-04-29T09:41:39;7.50;;;6.88;;
14686;SDS011;7431;49.440;11.084;2023-04-29T09:44:05;6.68;;;5.97;;
14686;SDS011;7431;49.440;11.084;2023-04-29T09:46:32;5.82;;;5.32;;
14686;SDS011;7431;49.440;11.084;2023-04-29T09:48:58;6.10;;;5.60;;
14686;SDS011;7431;49.440;11.084;2023-04-29T09:51:25;6.35;;;5.82;;
14686;SDS011;7431;49.440;11.084;2023-04-29T09:53:51;6.35;;;5.78;;
14686;SDS011;7431;49.440;11.084;2023-04-29T09:56:17;6.18;;;5.60;;
14686;SDS011;7431;49.440;11.084;2023-04-29T09:58:43;6.78;;;6.18;;
14686;SDS011;7431;49.440;11.084;2023-04-29T10:01:09;7.53;;;6.80;;
14686;SDS011;7431;49.440;11.084;2023-04-29T10:03:38;7.72;;;7.13;;
14686;SDS011;7431;49.440;11.084;2023-04-29T10:06:06;6.10;;;5.55;;
14686;SDS011;7431;49.440;11.084;2023-04-29T10:08:33;6.65;;;6.05;;
14686;SDS011;7431;49.440;11.084;2023-04-29T10:11:00;6.13;;;5.63;;
14686;SDS011;7431;49.440;11.084;2023-04-29T10:13:26;5.95;;;5.45;;
14686;SDS011;7431;49.440;11.084;2023-04-29T10:18:24;6.88;;;5.90;;
14686;SDS011;7431;49.440;11.084;2023-04-29T10:20:51;7.00;;;6.38;;
14686;SDS011;7431;49.440;11.084;2023-04-29T10:23:17;7.00;;;6.22;;
14686;SDS011;7431;49.440;11.084;2023-04-29T10:25:45;7.13;;;6.53;;
14686;SDS011;7431;49.440;11.084;2023-04-29T10:28:13;6.15;;;5.68;;
14686;SDS011;7431;49.440;11.084;2023-04-29T10:30:44;7.15;;;6.55;;
14686;SDS011;7431;49.440;11.084;2023-04-29T10:33:11;6.35;;;5.75;;
14686;SDS011;7431;49.440;11.084;2023-04-29T10:35:37;7.10;;;6.40;;
14686;SDS011;7431;49.440;11.084;2023-04-29T10:38:05;7.50;;;6.85;;
14686;SDS011;7431;49.440;11.084;2023-04-29T10:40:41;7.43;;;6.82;;
14686;SDS011;7431;49.440;11.084;2023-04-29T10:43:10;7.60;;;6.90;;
14686;SDS011;7431;49.440;11.084;2023-04-29T10:45:36;8.43;;;7.63;;
14686;SDS011;7431;49.440;11.084;2023-04-29T10:53:17;6.97;;;6.45;;
14686;SDS011;7431;49.440;11.084;2023-04-29T10:55:45;8.65;;;7.93;;
14686;SDS011;7431;49.440;11.084;2023-04-29T11:00:57;7.82;;;7.22;;
14686;SDS011;7431;49.440;11.084;2023-04-29T11:06:09;7.45;;;6.78;;
14686;SDS011;7431;49.440;11.084;2023-04-29T11:08:38;7.43;;;6.72;;
14686;SDS011;7431;49.440;11.084;2023-04-29T11:11:04;6.68;;;6.07;;
14686;SDS011;7431;49.440;11.084;2023-04-29T11:13:31;7.70;;;6.90;;
14686;SDS011;7431;49.440;11.084;2023-04-29T11:16:08;8.50;;;7.70;;
14686;SDS011;7431;49.440;11.084;2023-04-29T11:18:35;7.38;;;6.68;;
14686;SDS011;7431;49.440;11.084;2023-04-29T11:23:34;10.20;;;9.05;;
14686;SDS011;7431;49.440;11.084;2023-04-29T11:26:00;8.55;;;7.78;;
14686;SDS011;7431;49.440;11.084;2023-04-29T11:28:27;7.60;;;6.72;;
14686;SDS011;7431;49.440;11.084;2023-04-29T11:30:53;7.35;;;6.75;;
14686;SDS011;7431;49.440;11.084;2023-04-29T11:33:20;7.43;;;6.75;;
14686;SDS011;7431;49.440;11.084;2023-04-29T11:35:46;7.45;;;6.68;;
14686;SDS011;7431;49.440;11.084;2023-04-29T11:38:12;7.82;;;7.00;;
14686;SDS011;7431;49.440;11.084;2023-04-29T11:40:47;6.57;;;5.97;;
14686;SDS011;7431;49.440;11.084;2023-04-29T11:43:17;7.35;;;6.72;;
14686;SDS011;7431;49.440;11.084;2023-04-29T11:45:44;8.82;;;7.80;;
14686;SDS011;7431;49.440;11.084;2023-04-29T11:48:16;8.48;;;7.40;;
14686;SDS011;7431;49.440;11.084;2023-04-29T11:50:42;6.55;;;6.03;;
14686;SDS011;7431;49.440;11.084;2023-04-29T11:53:09;5.93;;;5.43;;
14686;SDS011;7431;49.440;11.084;2023-04-29T11:55:36;6.32;;;5.63;;
14686;SDS011;7431;49.440;11.084;2023-04-29T11:58:05;7.65;;;6.95;;
14686;SDS011;7431;49.440;11.084;2023-04-29T12:00:31;6.65;;;6.10;;
14686;SDS011;7431;49.440;11.084;2023-04-29T12:02:57;6.95;;;6.25;;
14686;SDS011;7431;49.440;11.084;2023-04-29T12:05:26;6.75;;;6.15;;
14686;SDS011;7431;49.440;11.084;2023-04-29T12:07:55;6.22;;;5.72;;
14686;SDS011;7431;49.440;11.084;2023-04-29T12:10:21;5.47;;;4.97;;
14686;SDS011;7431;49.440;11.084;2023-04-29T12:12:47;6.80;;;6.20;;
14686;SDS011;7431;49.440;11.084;2023-04-29T12:15:13;6.75;;;6.05;;
14686;SDS011;7431;49.440;11.084;2023-04-29T12:17:39;7.05;;;6.10;;
14686;SDS011;7431;49.440;11.084;2023-04-29T12:20:07;4.88;;;4.20;;
14686;SDS011;7431;49.440;11.084;2023-04-29T12:22:34;4.65;;;4.25;;
14686;SDS011;7431;49.440;11.084;2023-04-29T12:25:03;5.63;;;5.13;;
14686;SDS011;7431;49.440;11.084;2023-04-29T12:27:30;6.45;;;5.85;;
14686;SDS011;7431;49.440;11.084;2023-04-29T12:29:56;7.13;;;5.13;;
14686;SDS011;7431;49.440;11.084;2023-04-29T12:32:23;5.07;;;4.55;;
14686;SDS011;7431;49.440;11.084;2023-04-29T12:34:52;5.07;;;4.50;;
14686;SDS011;7431;49.440;11.084;2023-04-29T12:37:18;5.00;;;4.60;;
14686;SDS011;7431;49.440;11.084;2023-04-29T12:39:48;4.93;;;4.53;;
14686;SDS011;7431;49.440;11.084;2023-04-29T12:42:14;5.25;;;4.70;;
14686;SDS011;7431;49.440;11.084;2023-04-29T12:44:43;5.53;;;4.57;;
14686;SDS011;7431;49.440;11.084;2023-04-29T12:47:11;4.78;;;4.22;;
14686;SDS011;7431;49.440;11.084;2023-04-29T12:49:40;4.80;;;4.07;;
14686;SDS011;7431;49.440;11.084;2023-04-29T12:52:06;4.63;;;4.10;;
14686;SDS011;7431;49.440;11.084;2023-04-29T12:54:34;7.18;;;5.18;;
14686;SDS011;7431;49.440;11.084;2023-04-29T12:57:06;8.45;;;7.55;;
14686;SDS011;7431;49.440;11.084;2023-04-29T12:59:38;12.68;;;9.27;;
14686;SDS011;7431;49.440;11.084;2023-04-29T13:02:07;4.80;;;4.30;;
14686;SDS011;7431;49.440;11.084;2023-04-29T13:04:35;5.03;;;4.45;;
14686;SDS011;7431;49.440;11.084;2023-04-29T13:07:01;5.05;;;4.50;;
14686;SDS011;7431;49.440;11.084;2023-04-29T13:09:28;5.88;;;5.10;;
14686;SDS011;7431;49.440;11.084;2023-04-29T13:11:55;3.95;;;3.60;;
14686;SDS011;7431;49.440;11.084;2023-04-29T13:14:21;5.30;;;4.63;;
14686;SDS011;7431;49.440;11.084;2023-04-29T13:16:47;4.80;;;4.40;;
14686;SDS011;7431;49.440;11.084;2023-04-29T13:19:13;5.60;;;4.07;;
14686;SDS011;7431;49.440;11.084;2023-04-29T13:21:39;3.95;;;3.65;;
14686;SDS011;7431;49.440;11.084;2023-04-29T13:24:05;4.15;;;3.63;;
14686;SDS011;7431;49.440;11.084;2023-04-29T13:26:32;4.43;;;3.92;;
14686;SDS011;7431;49.440;11.084;2023-04-29T13:28:58;8.30;;;7.10;;
14686;SDS011;7431;49.440;11.084;2023-04-29T13:31:24;5.95;;;4.97;;
14686;SDS011;7431;49.440;11.084;2023-04-29T13:33:50;5.03;;;4.53;;
14686;SDS011;7431;49.440;11.084;2023-04-29T13:36:16;6.50;;;5.07;;
14686;SDS011;7431;49.440;11.084;2023-04-29T13:38:42;5.45;;;4.80;;
14686;SDS011;7431;49.440;11.084;2023-04-29T13:41:08;4.82;;;4.07;;
14686;SDS011;7431;49.440;11.084;2023-04-29T13:43:34;3.97;;;3.58;;
14686;SDS011;7431;49.440;11.084;2023-04-29T13:46:01;3.95;;;3.50;;
14686;SDS011;7431;49.440;11.084;2023-04-29T13:48:27;4.07;;;3.78;;
14686;SDS011;7431;49.440;11.084;2023-04-29T13:50:52;4.65;;;4.15;;
14686;SDS011;7431;49.440;11.084;2023-04-29T13:53:19;5.90;;;5.30;;
14686;SDS011;7431;49.440;11.084;2023-04-29T13:55:45;6.03;;;4.38;;
14686;SDS011;7431;49.440;11.084;2023-04-29T13:58:11;6.70;;;4.32;;
14686;SDS011;7431;49.440;11.084;2023-04-29T14:00:37;6.95;;;5.88;;
14686;SDS011;7431;49.440;11.084;2023-04-29T14:03:03;7.55;;;6.72;;
14686;SDS011;7431;49.440;11.084;2023-04-29T14:05:31;5.13;;;4.28;;
14686;SDS011;7431;49.440;11.084;2023-04-29T14:07:57;6.78;;;4.50;;
14686;SDS011;7431;49.440;11.084;2023-04-29T14:10:23;4.80;;;4.20;;
14686;SDS011;7431;49.440;11.084;2023-04-29T14:12:49;4.03;;;3.53;;
14686;SDS011;7431;49.440;11.084;2023-04-29T14:15:15;3.60;;;3.30;;
14686;SDS011;7431;49.440;11.084;2023-04-29T14:17:41;4.00;;;3.55;;
14686;SDS011;7431;49.440;11.084;2023-04-29T14:20:07;4.35;;;3.95;;
14686;SDS011;7431;49.440;11.084;2023-04-29T14:22:33;3.42;;;3.13;;
14686;SDS011;7431;49.440;11.084;2023-04-29T14:24:59;3.63;;;3.25;;
14686;SDS011;7431;49.440;11.084;2023-04-29T14:27:25;4.40;;;4.00;;
14686;SDS011;7431;49.440;11.084;2023-04-29T14:29:51;6.35;;;4.32;;
14686;SDS011;7431;49.440;11.084;2023-04-29T14:32:17;5.93;;;4.32;;
14686;SDS011;7431;49.440;11.084;2023-04-29T14:34:43;6.38;;;4.68;;
14686;SDS011;7431;49.440;11.084;2023-04-29T14:37:09;3.40;;;3.10;;
14686;SDS011;7431;49.440;11.084;2023-04-29T14:39:35;3.55;;;3.25;;
14686;SDS011;7431;49.440;11.084;2023-04-29T14:42:02;6.10;;;5.53;;
14686;SDS011;7431;49.440;11.084;2023-04-29T14:44:28;8.32;;;5.55;;
14686;SDS011;7431;49.440;11.084;2023-04-29T14:46:54;6.32;;;5.43;;
14686;SDS011;7431;49.440;11.084;2023-04-29T14:49:20;5.93;;;5.10;;
14686;SDS011;7431;49.440;11.084;2023-04-29T14:51:46;3.33;;;3.03;;
14686;SDS011;7431;49.440;11.084;2023-04-29T14:54:12;4.55;;;4.10;;
14686;SDS011;7431;49.440;11.084;2023-04-29T14:56:38;5.07;;;4.03;;
14686;SDS011;7431;49.440;11.084;2023-04-29T14:59:04;6.63;;;4.97;;
14686;SDS011;7431;49.440;11.084;2023-04-29T15:01:32;7.15;;;5.93;;
14686;SDS011;7431;49.440;11.084;2023-04-29T15:03:58;9.75;;;7.03;;
14686;SDS011;7431;49.440;11.084;2023-04-29T15:06:25;7.60;;;6.00;;